NCAR-RAP Real-Time Weather Data

Output produced by METARs form (14 October 2019  22:34 UTC)
found at http://weather.rap.ucar.edu/surface/
 
KCRW 142154Z COR 29005KT 10SM CLR 21/03 A3006 RMK AO2 SLP176 T02110028 $
KCRW 142054Z 24006KT 10SM CLR 21/03 A3005 RMK AO2 SLP174 T02110033 56008 $
KCRW 141954Z 26007G20KT 230V330 10SM CLR 21/02 A3005 RMK AO2 SLP175 T02110022 $
KCRW 141854Z 22009KT 10SM CLR 21/03 A3005 RMK AO2 SLP175 T02060033 $
KCRW 141754Z 28004KT 10SM CLR 20/03 A3008 RMK AO2 SLP183 T02000033 10200 20033 58014 $
KCRW 141654Z 21007KT 10SM CLR 18/04 A3010 RMK AO2 SLP190 T01830039 $
KCRW 141554Z VRB06KT 10SM CLR 17/04 A3011 RMK AO2 SLP194 T01670039 $
KCRW 141454Z 23010KT 10SM CLR 15/04 A3012 RMK AO2 SLP199 T01500044 51015 $
KCRW 141354Z 24004KT 10SM CLR 11/07 A3012 RMK AO2 SLP199 T01060067 $
KCRW 141254Z 00000KT 10SM FEW000 06/05 A3009 RMK AO2 SLP192 FG FEW000 T00610050 $
KCRW 141154Z 00000KT 10SM FEW000 03/02 A3008 RMK AO2 SLP186 FG FEW000 T00330022 10061 20033 51014 $
KCRW 141054Z 13003KT 10SM FEW001 03/02 A3007 RMK AO2 SLP182 VLY FG T00330022 $
KCRW 140954Z 00000KT 10SM FEW001 03/03 A3005 RMK AO2 SLP175 VLY FG T00330028 $
KCRW 140854Z 00000KT 10SM FEW001 04/03 A3003 RMK AO2 SLP169 VLY FG T00440033 53004 $
KCRW 140754Z 00000KT 10SM FEW001 04/04 A3002 RMK AO2 SLP165 VLY FG T00440039 $
KCRW 140654Z 00000KT 10SM FEW001 05/04 A3002 RMK AO2 SLP164 VLY FG T00500039 $
KCRW 140643Z 00000KT 10SM FEW001 05/04 A3002 RMK AO2 VLY FG T00500039
KCRW 140554Z 00000KT 10SM CLR 06/04 A3002 RMK AO2 SLP165 T00610044 10133 20061 51010
KCRW 140454Z 00000KT 10SM CLR 06/05 A3001 RMK AO2 SLP163 VLY FG T00610050 402060033
KCRW 140354Z 00000KT 10SM CLR 07/06 A3001 RMK AO2 SLP162 T00720056
KCRW 140254Z 00000KT 10SM CLR 08/06 A2999 RMK AO2 SLP156 T00780056 53007
KCRW 140154Z 00000KT 10SM CLR 09/07 A2998 RMK AO2 SLP152 T00940067
KCRW 140054Z 00000KT 10SM CLR 10/06 A2997 RMK AO2 SLP151 T01000061
KCRW 132354Z 00000KT 10SM CLR 13/06 A2997 RMK AO2 SLP148 T01330061 10206 20133 51001
KCRW 132254Z 00000KT 10SM CLR 16/05 A2997 RMK AO2 SLP147 T01610050
KCRW 132154Z VRB03KT 10SM CLR 20/03 A2997 RMK AO2 SLP147 T02000028
KCRW 132054Z 00000KT 10SM CLR 20/03 A2996 RMK AO2 SLP145 T02000033 56019
KCRW 131954Z 27004KT 10SM FEW250 19/04 A2997 RMK AO2 SLP147 T01940039
KCRW 131854Z VRB03KT 10SM FEW250 18/03 A3000 RMK AO2 SLP157 T01780028
KCRW 131754Z VRB03KT 10SM FEW100 SCT250 16/02 A3002 RMK AO2 SLP166 T01610022 10161 20056 58019
KCRW 131654Z VRB06KT 10SM FEW100 SCT250 13/05 A3005 RMK AO2 SLP176 T01280050
KCRW 131554Z 22006KT 10SM FEW009 BKN230 11/06 A3008 RMK AO2 SLP187 T01060056
KCRW 131454Z VRB04KT 10SM SCT008 BKN230 10/06 A3008 RMK AO2 SLP188 T01000056 53002
KCRW 131354Z 00000KT 10SM BKN007 07/06 A3007 RMK AO2 SLP186 T00720056
KCRW 131254Z 19003KT 6SM BR OVC005 06/04 A3008 RMK AO2 SLP188 VLY FG T00560044
KCRW 131154Z 12003KT 1 1/2SM BR OVC002 06/04 A3007 RMK AO2 SLP186 VLY FG 70002 T00560044 10056 20033 56002
KCRW 131111Z 00000KT 1 1/2SM BR OVC001 06/05 A3007 RMK AO2 VLY FG T00560050
KCRW 131054Z 00000KT 1/2SM FG VV001 06/05 A3007 RMK AO2 SLP186 T00560050 RVRNO
KCRW 130954Z 02004KT 1/2SM FG VV001 05/04 A3008 RMK AO2 SLP187 T00500039 RVRNO
KCRW 130854Z 04003KT 1/2SM FG VV001 04/04 A3008 RMK AO2 SLP187 T00440039 56005 RVRNO
KCRW 130754Z 00000KT 1/2SM FG VV001 04/04 A3008 RMK AO2 SLP188 T00440044 RVRNO
KCRW 130654Z 00000KT 1/2SM FG VV001 04/04 A3009 RMK AO2 SLP192 T00440039 RVRNO
KCRW 130554Z 00000KT 1/2SM FG VV001 03/03 A3009 RMK AO2 SLP194 T00330028 10083 20033 58009 RVRNO
KCRW 130454Z 00000KT 1/2SM FG BKN002 04/03 A3011 RMK AO2 SLP199 T00390033 402000039 RVRNO
KCRW 130354Z 00000KT 7SM SCT000 04/03 A3012 RMK AO2 SLP203 FG SCT000 T00440033
KCRW 130318Z 00000KT 1/2SM FG SCT001 06/04 A3012 RMK AO2 T00560044 RVRNO
KCRW 130254Z 00000KT 10SM FEW000 05/04 A3012 RMK AO2 SLP203 FG FEW000 T00500044 58004
KCRW 130154Z 00000KT 10SM CLR 06/04 A3014 RMK AO2 SLP207 T00610044
KCRW 130054Z 00000KT 10SM CLR 07/05 A3013 RMK AO2 SLP205 T00670050
KCRW 122354Z 00000KT 10SM CLR 08/05 A3014 RMK AO2 SLP205 T00830050 10122 20083 55001
KCRW 122254Z 22004KT 10SM FEW029 09/04 A3013 RMK AO2 SLP203 T00940044